News    GLOBAL    TV    HD    3D    Ultra HD    Radio    Data    Temp.FTA    [-]    FTA

Lista kanałów dostępnych w Europie za pomocą satelity
Wyszukiwarka kanałów:
Astra 2G (28.2°E) Transponder 95
26.0E>
<30.5E

Pozycja orbitalna Satelita Norad .ini News kanałów Darmowe (FTA) Longitude Declination now Max declination Azimuth Elevation Ostatnia aktualizacja
28.2°E Astra 2E 39285 338 145 28.49°E 0.07° 0.07° N/A N/A 2024-04-11 23:11
28.2°E Astra 2F 38778 145 68 28.19°E -0.01° 0.05° N/A N/A 2024-04-04 19:23
28.2°E Astra 2G 40364 236 162 28.18°E 0.04° 0.06° N/A N/A 2024-04-09 20:27

Sortuj według: Szyfrowanie: Tryb wyświetlania:

36 rekordów - Posortowane według częstotliwości - Najnowsze aktualizacje: CET

Pos Satellite Frequence Pol Txp Beam Standard Modulation SR/FEC Network, bitrate NID TID
28.2°E 36Astra 2G 11552.75H95EuropeDVB-SQPSK22000 5/6ASTRA, 33.8 Mb/s 22095 KingOfSat charts update form
Craft Extra
Wielka Brytania Telezakupy Sky Digital FTA 9537 2332 2333 eng  305  2332    2023-10-21 +
Jewellery Channel
Wielka Brytania Telezakupy Sky Digital FTA 55100 2346 2347 eng  267  2346    2020-09-12 +
High Street TV 2 Wielka Brytania Telezakupy Sky Digital FTA 55102 2352 2353 eng  273  2352    2018-02-01 +
High Street TV 3
Wielka Brytania Telezakupy Sky Digital FTA 55104 2338 2339 eng  266  2338    2021-11-02 +
NTD TV (New Tang Dynasty TV) Stany Zjednoczone Ogólne Sky Digital FTA 55106 2306 2307 eng  257  2306    2021-02-22 +
Noor TV Wielka Brytania Religia Sky Digital FTA 55109 2355 2356 eng  264  2355    2015-08-19 +
Pitaara Wielka Brytania Rozrywka Sky Digital FTA 55110 2313 2323 eng  275  2313    2024-02-12 +
Clubland TV
Wielka Brytania Muzyka Sky Digital FTA 55113 2557 2558 eng  256  2557    2015-08-19 +
Now Rock Wielka Brytania Muzyka Sky Digital FTA 55114 2560 2561 eng  261  2560    2022-12-27 +
NDTV 24x7 Indie Informacje Sky Digital FTA 55116 2360 2361 eng  269  2360    2015-08-19 +

SonLife Broadcasting Network Wielka Brytania Religia Sky Digital FTA 55120 2331 2329 esp
2330 eng 
277  2331  2328  2021-10-30 +
Channel S Wielka Brytania Ogólne Sky Digital FTA 55142 2326 2324 eng  276  2326    2024-02-12 +
HUM Masala Wielka Brytania Rozrywka Sky Digital FTA 55146 2343 2342 eng  281  2343    2021-10-30 +
PTV Global Pakistan Ogólne Sky Digital FTA 55151 2335 2337 urd  259  2335    2020-04-07 +
Kanshi TV Wielka Brytania Rozrywka Sky Digital FTA 55155 2327 2345 eng  279  2327    2024-02-12 +
Hum Europe Pakistan Ogólne Sky Digital FTA 55181 2341 2340 urd  285  2341    2021-10-30 +
Deen TV Wielka Brytania Religia Sky Digital FTA 55185 2314 2315 eng  260  2314    2021-02-23 +
Capital XTRA Freesat
Sky Digital
FTA 9549   2320 eng  313  2320    2015-08-19
Radio X Freesat
Sky Digital
FTA 9559   2316 eng  318  2316    2015-09-14
Capital Freesat
Sky Digital
FTA 9560   2318 eng  319  2318    2016-09-26
Gold Freesat
Sky Digital
FTA 9561   2310  258  2310    2015-08-19
Khushkhabri Sky Digital FTA 9563   2336  320  2336    2015-08-19
Classic FM Freesat
Sky Digital
FTA 9570   2344 eng  263  2344    2015-08-19
LBC News Sky Digital FTA 55131   2334  282  2334    2020-01-09
Smooth Sky Digital FTA 55132   2312  270  2312    2015-08-19
Heart Dance Sky Digital FTA 55133   2311 eng  271  2311    2019-10-07
Virgin Radio Włochy Muzyka Sky Digital FTA 55135   2321 eng  278  2321    2019-01-08 +
TWR Sky Digital FTA 55136   2322  280  2322    2019-03-01
Heart 90s Sky Digital FTA 55139   2325 eng  265  2325    2019-11-13
Panjab Radio Sky Digital FTA 55186   2305  295  2305    2023-08-01
Sukh Sagar Sky Digital FTA 55187   2308  296  2308    2023-08-01
BFBS Radio Sky Digital FTA 55188   2309  297  2309    2023-08-01
LBC Sky Digital FTA 55189   2317  298  2317    2023-08-02
Heart Sky Digital FTA 55190   2319  299  2319    2023-08-02
Heart 80s Sky Digital FTA 55191   2350  300  2350    2023-08-02
talkSPORT Sky Digital FTA 55198   2348 eng  283  2348    2024-02-12

Detailed transponder stream properties (11552.75 H)

SID Ident. PID Format Colorimetry Width Height Aspect Ratio Frame rate
Sampling rate
Bitrate mode Bitrate Scan type Ostatnia aktualizacja
9537 2332 MPEG Video Main, Main 4:2:0 544 576 1.778 25.000 FPS VBR Interlaced 2024-04-12
9537 2333 MPEG Audio, Layer 22 channels 48000 CBR 128000 2024-04-12
9549 2320 MPEG Audio, Layer 22 channels 48000 CBR 160000 2024-04-12
9559 2316 MPEG Audio, Layer 22 channels 48000 CBR 160000 2024-04-12
9560 2318 MPEG Audio, Layer 22 channels 48000 CBR 160000 2024-04-12
9561 2310 MPEG Audio, Layer 22 channels 48000 CBR 160000 2024-04-12
9563 2336 MPEG Audio, Layer 21 channel 48000 CBR 96000 2024-04-12
9570 2344 MPEG Audio, Layer 22 channels 48000 CBR 192000 2024-04-12
55100 2346 MPEG Video Main, Main 4:2:0 720 576 1.778 25.000 FPS VBR Interlaced 2024-04-12
55100 2347 MPEG Audio, Layer 22 channels 48000 CBR 192000 2024-04-12
55102 2352 MPEG Video Main, Main 4:2:0 544 576 1.778 25.000 FPS VBR Interlaced 2024-04-12
55102 2353 MPEG Audio, Layer 22 channels 48000 CBR 128000 2024-04-12
55104 2338 MPEG Video Main, Main 4:2:0 544 576 1.778 25.000 FPS VBR Interlaced 2024-04-12
55104 2339 MPEG Audio, Layer 22 channels 48000 CBR 128000 2024-04-12
55106 2306 MPEG Video Main, Main 4:2:0 544 576 1.778 25.000 FPS VBR Interlaced 2024-04-12
55106 2307 MPEG Audio, Layer 22 channels 48000 CBR 128000 2024-04-12
55109 2355 MPEG Video Main, Main 4:2:0 544 576 1.778 25.000 FPS VBR Interlaced 2024-04-12
55109 2356 MPEG Audio, Layer 22 channels 48000 CBR 128000 2024-04-12
55110 2313 MPEG Video Main, Main 4:2:0 544 576 1.778 25.000 FPS VBR Interlaced 2024-04-12
55110 2323 MPEG Audio, Layer 22 channels 48000 CBR 128000 2024-04-12
55113 2557 MPEG Video Main, Main 4:2:0 544 576 1.778 25.000 FPS VBR Interlaced 2024-04-12
55113 2558 MPEG Audio, Layer 22 channels 48000 CBR 192000 2024-04-12
55114 2560 MPEG Video Main, Main 4:2:0 544 576 1.778 25.000 FPS VBR Interlaced 2024-04-12
55114 2561 MPEG Audio, Layer 22 channels 48000 CBR 192000 2024-04-12
55116 2360 MPEG Video Main, Main 4:2:0 544 576 1.333 25.000 FPS VBR Interlaced 2024-04-12
55116 2361 MPEG Audio, Layer 22 channels 48000 CBR 128000 2024-04-12
55120 2328 Teletext 2024-04-12
55120 2329 MPEG Audio, Layer 22 channels 48000 CBR 128000 2024-04-12
55120 2330 MPEG Audio, Layer 22 channels 48000 CBR 128000 2024-04-12
55120 2331 MPEG Video Main, Main 4:2:0 544 576 1.778 25.000 FPS VBR Interlaced 2024-04-12
55131 2334 MPEG Audio, Layer 22 channels 48000 CBR 128000 2024-04-12
55132 2312 MPEG Audio, Layer 22 channels 48000 CBR 160000 2024-04-12
55133 2311 MPEG Audio, Layer 22 channels 48000 CBR 160000 2024-04-12
55135 2321 MPEG Audio, Layer 22 channels 48000 CBR 192000 2024-04-12
55136 2322 MPEG Audio, Layer 21 channel 48000 CBR 64000 2024-04-12
55139 2325 MPEG Audio, Layer 22 channels 48000 CBR 160000 2024-04-12
55142 2324 MPEG Audio, Layer 22 channels 48000 CBR 128000 2024-04-12
55142 2326 MPEG Video Main, Main 4:2:0 544 576 1.778 25.000 FPS VBR Interlaced 2024-04-12
55146 2342 MPEG Audio, Layer 22 channels 48000 CBR 192000 2024-04-12
55146 2343 MPEG Video Main, Main 4:2:0 544 576 1.333 25.000 FPS VBR Interlaced 2024-04-12
55151 2335 MPEG Video Main, Main 4:2:0 544 576 1.333 25.000 FPS VBR Interlaced 2024-04-12
55151 2337 MPEG Audio, Layer 22 channels 48000 CBR 128000 2024-04-12
55155 2327 MPEG Video Main, Main 4:2:0 544 576 1.778 25.000 FPS VBR Interlaced 2024-04-12
55155 2345 MPEG Audio, Layer 22 channels 48000 CBR 192000 2024-04-12
55181 2340 MPEG Audio, Layer 22 channels 48000 CBR 128000 2024-04-12
55181 2341 MPEG Video Main, Main 4:2:0 544 576 1.333 25.000 FPS VBR Interlaced 2024-04-12
55185 2314 MPEG Video Main, Main 4:2:0 720 576 1.778 25.000 FPS VBR Interlaced 2024-04-12
55185 2315 MPEG Audio, Layer 22 channels 48000 CBR 128000 2024-04-12
55186 2305 MPEG Audio, Layer 21 channel 48000 CBR 128000 2024-04-12
55187 2308 MPEG Audio, Layer 21 channel 48000 CBR 96000 2024-04-12
55188 2309 MPEG Audio, Layer 22 channels 48000 CBR 128000 2024-04-12
55189 2317 MPEG Audio, Layer 22 channels 48000 CBR 128000 2024-04-12
55190 2319 MPEG Audio, Layer 22 channels 48000 CBR 160000 2024-04-12
55191 2350 MPEG Audio, Layer 22 channels 48000 CBR 160000 2024-04-12
55198 2348 MPEG Audio, Layer 21 channel 32000 CBR 80000 2024-04-12

Twój Komentarz / poprawki

Legenda

8K - Ultra HD

4K - Ultra HD

High Definition

Sporadyczne lub pełne transmisje 16 / 9

     

Video: MPEG-4/AVC/H-264

     

Video: MPEG-H/HEVC/H-265

     

Video: MPEG-I/VVC/H-266

     

FTA

     

Szyfrowane

Wyświetlenia ekranu

3D

Transmisje wideo na żywo

+

Zmiany w dzienniku

     

DVB-S

     

DVB-S2

     

DVB-S2X


PROFIL - INDEKS - Aktualności - SATELITY - PAKIETY - KANAŁY - SZUKAJ - WIĄZKI - TRANSMISJE (FEEDS) - CMENTARZ - Twój Komentarz / poprawki

All contents on this site are protected by copyright and owned by KingOfSat, except contents shown in some screenshots that belong to their respective owners. Screenshots are only proposed to help illustrating, identifying and promoting corresponding TV channels. For all questions/remarks related to copyright, please contact KingOfSat webmaster.